Time;durP1;ratioP1;P1;durP2;ratioP2;P2;SDS_P1;SDS_P2;PMS_P1;PMS_P2;Temp;Humidity;BMP_temperature;BMP_pressure;BME280_temperature;BME280_humidity;BME280_pressure;Samples;Min_cycle;Max_cycle;Signal;HPM_P1;HPM_P2
2022/08/04 00:00:05;;;;;;;9.25;5.57;;;;;;;20.30;100.00;101217.09;4970072;28;20046;-71
2022/08/04 00:02:46;;;;;;;7.38;4.75;;;;;;;20.44;100.00;101219.28;4966126;28;20046;-69
2022/08/04 00:05:19;;;;;;;8.48;4.97;;;;;;;20.43;100.00;101213.00;4966641;28;20049;-69
2022/08/04 00:07:57;;;;;;;8.68;5.35;;;;;;;20.44;100.00;101212.00;4969854;28;20038;-70
2022/08/04 00:10:27;;;;;;;9.02;5.18;;;;;;;20.47;100.00;101213.56;4968752;28;20124;-70
2022/08/04 00:12:56;;;;;;;9.05;5.38;;;;;;;20.37;100.00;101204.63;4968436;28;20117;-69
2022/08/04 00:15:22;;;;;;;9.50;5.20;;;;;;;20.25;100.00;101209.41;4968203;28;20042;-69
2022/08/04 00:17:53;;;;;;;8.30;5.18;;;;;;;20.29;100.00;101209.97;4969408;28;20030;-71
2022/08/04 00:20:19;;;;;;;8.45;4.40;;;;;;;20.18;100.00;101205.56;4967410;28;20638;-70
2022/08/04 00:22:47;;;;;;;9.55;5.40;;;;;;;20.19;100.00;101210.03;4970545;28;20896;-70
2022/08/04 00:25:12;;;;;;;19.35;6.47;;;;;;;20.33;100.00;101209.50;4969084;28;20380;-70
2022/08/04 00:27:38;;;;;;;9.30;5.07;;;;;;;20.31;100.00;101203.38;4970461;28;20033;-70
2022/08/04 00:30:05;;;;;;;9.40;5.75;;;;;;;20.33;100.00;101208.63;4969744;28;20625;-70
2022/08/04 00:32:31;;;;;;;8.00;5.35;;;;;;;20.39;100.00;101205.34;4969846;28;20048;-70
2022/08/04 00:34:58;;;;;;;11.13;5.13;;;;;;;20.44;100.00;101205.75;4968624;28;20034;-71
2022/08/04 00:37:25;;;;;;;10.13;5.38;;;;;;;20.46;100.00;101198.28;4968018;28;20769;-70
2022/08/04 00:39:53;;;;;;;10.10;5.35;;;;;;;20.41;100.00;101200.63;4969027;28;20930;-69
2022/08/04 00:42:46;;;;;;;12.02;5.85;;;;;;;20.44;100.00;101197.59;4968817;28;20898;-70
2022/08/04 00:45:26;;;;;;;7.60;4.90;;;;;;;20.27;100.00;101193.00;4968888;28;20046;-69
2022/08/04 00:48:10;;;;;;;12.95;5.63;;;;;;;19.77;100.00;101186.09;4965104;28;20145;-70
2022/08/04 00:50:59;;;;;;;11.95;5.10;;;;;;;19.87;100.00;101196.91;4951038;28;20034;-70
2022/08/04 00:53:39;;;;;;;10.90;5.43;;;;;;;19.96;100.00;101193.31;4959154;28;20151;-70
2022/08/04 00:56:30;;;;;;;9.07;5.60;;;;;;;19.88;100.00;101194.06;4966037;28;20043;-71
2022/08/04 00:59:27;;;;;;;13.90;5.47;;;;;;;19.89;100.00;101184.94;4961154;28;20069;-70
2022/08/04 01:02:10;;;;;;;12.98;5.00;;;;;;;19.95;100.00;101183.47;4908707;29;20056;-70
2022/08/04 01:05:04;;;;;;;9.70;5.18;;;;;;;19.80;100.00;101183.13;4908729;29;20039;-70
2022/08/04 01:07:44;;;;;;;10.48;5.90;;;;;;;19.94;100.00;101170.09;4888006;29;20040;-70
2022/08/04 01:10:45;;;;;;;9.65;5.72;;;;;;;20.01;100.00;101173.91;4901959;29;20066;-70
2022/08/04 01:13:40;;;;;;;9.75;5.00;;;;;;;19.81;100.00;101173.13;4904535;29;20062;-70
2022/08/04 01:16:10;;;;;;;13.65;6.30;;;;;;;19.81;100.00;101170.44;4906869;29;20051;-70
2022/08/04 01:18:59;;;;;;;10.50;5.78;;;;;;;19.68;100.00;101162.66;4911015;29;21055;-70
2022/08/04 01:21:52;;;;;;;14.30;5.47;;;;;;;19.64;100.00;101163.97;4907933;29;20039;-69
2022/08/04 01:24:36;;;;;;;;;;;;;;;19.53;100.00;101158.69;4907621;29;20119;-70
2022/08/04 01:27:22;;;;;;;9.50;5.45;;;;;;;19.70;100.00;101159.81;4908349;29;19930;-70
2022/08/04 01:29:54;;;;;;;15.25;5.20;;;;;;;19.56;100.00;101150.28;4907265;29;20055;-69
2022/08/04 01:32:26;;;;;;;14.77;5.32;;;;;;;19.56;100.00;101150.28;4906886;29;20059;-70
2022/08/04 01:35:22;;;;;;;12.50;5.57;;;;;;;19.43;100.00;101150.63;4907168;29;20043;-71
2022/08/04 01:37:50;;;;;;;14.25;5.45;;;;;;;19.22;100.00;101150.78;4919145;28;20746;-70
2022/08/04 01:40:16;;;;;;;13.63;5.80;;;;;;;19.30;100.00;101150.06;4960135;28;20452;-70
2022/08/04 01:42:44;;;;;;;10.40;5.13;;;;;;;19.31;100.00;101147.22;4967836;28;20495;-69
2022/08/04 01:45:11;;;;;;;6.70;4.95;;;;;;;19.17;100.00;101146.81;4967042;28;20039;-70
2022/08/04 01:47:41;;;;;;;8.85;5.70;;;;;;;19.14;100.00;101134.47;4967540;28;20141;-70
2022/08/04 01:50:12;;;;;;;10.75;5.95;;;;;;;19.35;100.00;101148.63;4967203;28;20060;-69
2022/08/04 01:52:39;;;;;;;9.52;5.32;;;;;;;19.34;100.00;101149.66;4966136;28;20101;-70
2022/08/04 01:55:08;;;;;;;12.45;5.30;;;;;;;19.31;100.00;101143.66;4967370;28;20038;-71
2022/08/04 01:57:40;;;;;;;7.10;4.88;;;;;;;19.30;100.00;101147.38;4966762;28;20038;-71
2022/08/04 02:00:06;;;;;;;8.77;5.05;;;;;;;19.41;100.00;101148.03;4966649;28;20112;-71
2022/08/04 02:02:32;;;;;;;12.80;5.03;;;;;;;19.28;100.00;101142.13;4967616;28;20045;-71
2022/08/04 02:04:58;;;;;;;7.60;5.10;;;;;;;19.32;100.00;101137.25;4967225;28;20129;-70
2022/08/04 02:07:44;;;;;;;8.18;4.70;;;;;;;19.32;100.00;101130.00;4966987;28;20042;-71
2022/08/04 02:10:37;;;;;;;10.30;4.88;;;;;;;19.19;100.00;101140.28;4947819;28;20134;-71
2022/08/04 02:13:27;;;;;;;13.65;5.70;;;;;;;19.24;100.00;101134.44;4962739;28;20057;-70
2022/08/04 02:16:03;;;;;;;14.80;5.22;;;;;;;19.23;100.00;101133.59;4966287;28;20101;-70
2022/08/04 02:18:52;;;;;;;8.27;5.50;;;;;;;19.24;100.00;101135.28;4959091;28;20039;-71
2022/08/04 02:21:19;;;;;;;10.57;4.80;;;;;;;19.37;100.00;101121.44;4965217;28;20145;-70
2022/08/04 02:23:52;;;;;;;10.55;4.95;;;;;;;19.42;100.00;101111.88;4954605;28;20038;-71
2022/08/04 02:26:20;;;;;;;13.75;4.47;;;;;;;19.38;100.00;101117.75;4966852;28;20125;-70
2022/08/04 02:29:12;;;;;;;7.88;3.75;;;;;;;19.36;100.00;101107.06;4966110;28;20050;-71
2022/08/04 02:31:55;;;;;;;7.63;3.78;;;;;;;19.42;100.00;101119.13;4966765;28;20397;-71
2022/08/04 02:34:26;;;;;;;9.57;3.55;;;;;;;19.71;100.00;101101.97;4967086;28;20117;-69
2022/08/04 02:36:53;;;;;;;9.75;4.10;;;;;;;19.71;100.00;101097.41;4966717;28;20133;-70
2022/08/04 02:39:20;;;;;;;12.25;3.63;;;;;;;19.91;100.00;101096.31;4967244;28;20041;-70
2022/08/04 02:41:48;;;;;;;9.25;3.30;;;;;;;20.01;100.00;101098.94;4954090;28;20103;-70
2022/08/04 02:44:19;;;;;;;10.63;3.20;;;;;;;20.21;100.00;101094.25;4952005;28;20034;-71
2022/08/04 02:46:45;;;;;;;7.15;3.58;;;;;;;20.30;99.35;101090.63;4964793;28;20042;-70
2022/08/04 02:49:11;;;;;;;8.43;3.80;;;;;;;20.24;99.52;101080.41;4962757;28;20027;-70
2022/08/04 02:51:41;;;;;;;11.32;3.40;;;;;;;20.69;95.33;101087.63;4949121;28;20042;-71
2022/08/04 02:54:08;;;;;;;10.90;3.25;;;;;;;20.78;94.05;101083.94;4963323;28;20037;-70
2022/08/04 02:56:35;;;;;;;10.32;3.08;;;;;;;20.87;93.16;101085.72;4958603;28;20148;-71
2022/08/04 02:59:09;;;;;;;7.50;3.33;;;;;;;20.83;93.15;101087.03;4968313;28;20082;-71
2022/08/04 03:01:36;;;;;;;8.88;3.47;;;;;;;20.75;93.71;101081.56;4961014;28;20117;-71
2022/08/04 03:04:10;;;;;;;13.50;3.78;;;;;;;20.65;94.98;101083.53;4947208;28;20049;-71
2022/08/04 03:07:10;;;;;;;16.55;3.00;;;;;;;20.70;94.34;101081.19;4957849;28;20042;-71
2022/08/04 03:10:12;;;;;;;8.65;3.30;;;;;;;20.72;93.69;101073.75;4968052;28;20052;-69
2022/08/04 03:13:01;;;;;;;8.30;3.63;;;;;;;20.75;93.51;101084.28;4967423;28;20872;-71
2022/08/04 03:15:54;;;;;;;6.35;3.00;;;;;;;20.73;93.69;101077.31;4956723;28;20042;-70
2022/08/04 03:18:31;;;;;;;;;;;;;;;20.73;93.81;101074.59;4951837;28;20045;-71
2022/08/04 03:21:27;;;;;;;11.40;3.13;;;;;;;20.69;94.09;101076.78;4955777;28;19925;-71
2022/08/04 03:23:58;;;;;;;11.95;3.17;;;;;;;20.70;93.43;101081.19;4954391;28;20161;-70
2022/08/04 03:26:39;;;;;;;12.63;3.97;;;;;;;20.60;94.25;101083.16;4966823;28;20042;-70
2022/08/04 03:29:42;;;;;;;8.18;2.85;;;;;;;20.63;93.53;101070.16;4953317;28;20060;-71
2022/08/04 03:32:45;;;;;;;8.98;3.15;;;;;;;20.68;92.92;101072.34;4951179;28;20065;-70
2022/08/04 03:35:28;;;;;;;11.73;3.42;;;;;;;20.63;93.54;101074.69;4964936;28;20429;-70
2022/08/04 03:38:28;;;;;;;10.82;3.28;;;;;;;20.64;93.46;101066.41;4956096;28;20053;-70
2022/08/04 03:40:56;;;;;;;12.57;3.42;;;;;;;20.65;93.22;101069.97;4953385;28;20189;-71
2022/08/04 03:43:43;;;;;;;6.45;3.53;;;;;;;20.70;92.73;101073.06;4966550;28;20765;-70
2022/08/04 03:46:36;;;;;;;9.95;2.50;;;;;;;20.70;92.54;101073.06;4953951;28;20057;-71
2022/08/04 03:49:31;;;;;;;21.77;3.28;;;;;;;20.79;91.61;101068.56;4963332;28;20053;-70
2022/08/04 03:55:34;;;;;;;13.68;3.22;;;;;;;20.64;93.02;101065.56;4957561;28;20046;-70
2022/08/04 04:00:50;;;;;;;10.10;3.33;;;;;;;20.79;91.96;101060.44;4939595;28;20066;-67
2022/08/04 04:03:53;;;;;;;14.18;3.38;;;;;;;20.72;92.93;101057.47;4930405;28;20043;-68
2022/08/04 04:07:01;;;;;;;9.07;2.67;;;;;;;20.75;91.85;101053.63;4927930;28;20150;-67
2022/08/04 04:09:44;;;;;;;10.05;2.65;;;;;;;20.83;91.15;101057.22;4920652;29;20117;-67
2022/08/04 04:12:16;;;;;;;12.13;3.28;;;;;;;20.88;91.16;101049.50;4903638;29;20344;-69
2022/08/04 04:14:52;;;;;;;14.52;3.22;;;;;;;21.00;89.85;101054.66;4907498;29;20066;-68
2022/08/04 04:17:39;;;;;;;5.00;2.78;;;;;;;21.01;90.09;101051.75;4923563;29;20047;-68
2022/08/04 04:20:18;;;;;;;11.15;2.83;;;;;;;21.11;89.33;101048.94;4923185;29;20063;-68
2022/08/04 04:22:58;;;;;;;17.33;4.50;;;;;;;21.17;88.63;101049.13;4923598;29;20099;-69
2022/08/04 04:25:30;;;;;;;8.77;3.83;;;;;;;21.34;87.03;101044.69;4922768;29;20040;-67
2022/08/04 04:28:36;;;;;;;8.75;2.80;;;;;;;21.36;87.77;101050.81;4907561;29;20166;-68
2022/08/04 04:31:16;;;;;;;17.95;3.13;;;;;;;21.42;86.93;101043.88;4898036;29;20043;-68
2022/08/04 04:33:57;;;;;;;6.85;2.42;;;;;;;21.42;86.91;101044.72;4907395;29;20293;-68
2022/08/04 04:36:43;;;;;;;14.75;3.35;;;;;;;21.48;87.66;101047.78;4923138;29;20114;-68
2022/08/04 04:39:31;;;;;;;9.68;2.50;;;;;;;21.78;85.34;101049.94;4921421;29;20047;-67
2022/08/04 04:42:05;;;;;;;16.73;3.20;;;;;;;21.81;85.05;101049.63;4922322;29;20042;-68
2022/08/04 04:44:54;;;;;;;15.75;3.67;;;;;;;21.96;84.25;101047.13;4907063;29;20046;-69
2022/08/04 04:47:33;;;;;;;10.07;3.03;;;;;;;21.99;84.13;101046.78;4909711;29;20114;-68
2022/08/04 04:50:37;;;;;;;15.15;3.40;;;;;;;22.09;83.96;101046.59;4937508;28;20054;-68
2022/08/04 04:53:31;;;;;;;9.07;2.20;;;;;;;22.36;81.88;101034.63;4936738;28;20040;-68
2022/08/04 04:56:08;;;;;;;6.32;2.88;;;;;;;22.55;80.88;101030.75;4931398;28;20130;-68
2022/08/04 04:58:37;;;;;;;10.15;3.35;;;;;;;22.64;81.15;101033.28;4950508;28;20122;-69
2022/08/04 05:01:30;;;;;;;15.60;3.45;;;;;;;22.67;81.47;101032.06;4944888;29;20045;-68
2022/08/04 05:04:32;;;;;;;9.07;3.33;;;;;;;22.77;81.08;101040.06;4944211;28;20051;-67
2022/08/04 05:07:16;;;;;;;;;;;;;;;22.90;79.97;101037.69;4943855;28;20600;-67
2022/08/04 05:10:24;;;;;;;11.40;3.40;;;;;;;23.10;78.83;101036.28;4939599;29;19922;-69
2022/08/04 05:13:14;;;;;;;12.45;3.03;;;;;;;23.07;78.95;101039.34;4941059;28;20563;-68
2022/08/04 05:15:44;;;;;;;12.88;2.47;;;;;;;23.15;78.62;101036.63;4933359;29;20039;-68
2022/08/04 05:18:15;;;;;;;11.07;3.13;;;;;;;23.13;79.17;101040.53;4943036;28;20538;-68
2022/08/04 05:20:45;;;;;;;15.27;3.28;;;;;;;23.15;79.83;101046.66;4943632;28;20126;-68
2022/08/04 05:23:21;;;;;;;8.23;2.78;;;;;;;23.46;77.59;101055.72;4942373;29;20050;-68
2022/08/04 05:25:55;;;;;;;15.15;2.90;;;;;;;23.47;78.35;101072.91;4950995;28;20053;-71
2022/08/04 05:28:37;;;;;;;9.98;2.90;;;;;;;23.51;78.47;101071.53;4947923;28;20206;-68
2022/08/04 05:31:13;;;;;;;13.23;3.92;;;;;;;23.22;81.36;101083.84;4941357;29;20414;-69
2022/08/04 05:33:46;;;;;;;13.45;3.90;;;;;;;23.36;81.25;101085.03;4941964;28;20147;-67
2022/08/04 05:36:16;;;;;;;14.23;3.55;;;;;;;23.55;82.46;101088.38;4939464;28;20613;-68
2022/08/04 05:38:45;;;;;;;12.90;3.67;;;;;;;23.47;81.63;101094.69;4936599;28;20579;-68
2022/08/04 05:41:12;;;;;;;15.23;3.63;;;;;;;24.11;79.50;101100.03;4942231;28;20053;-68
2022/08/04 05:43:40;;;;;;;15.27;4.20;;;;;;;24.16;78.21;101087.56;4942649;29;20035;-67
2022/08/04 05:46:07;;;;;;;16.63;4.10;;;;;;;24.51;77.95;101091.63;4935725;29;20087;-69
2022/08/04 05:48:33;;;;;;;15.85;3.95;;;;;;;24.70;78.19;101093.00;4935662;28;20039;-68
2022/08/04 05:51:01;;;;;;;15.65;4.60;;;;;;;24.55;77.61;101094.84;4936764;28;20508;-68
2022/08/04 05:53:28;;;;;;;8.75;3.60;;;;;;;24.62;77.23;101103.97;4934574;28;20731;-68
2022/08/04 05:55:55;;;;;;;15.48;4.03;;;;;;;24.49;77.35;101101.00;4937203;28;20054;-68
2022/08/04 05:58:21;;;;;;;11.70;3.28;;;;;;;24.54;75.92;101095.84;4941317;28;20051;-68
2022/08/04 06:00:49;;;;;;;10.23;3.22;;;;;;;24.59;77.17;101093.41;4941662;28;20051;-69
2022/08/04 06:03:18;;;;;;;16.13;4.25;;;;;;;24.75;74.75;101098.75;4941844;28;20079;-67
2022/08/04 06:05:45;;;;;;;12.65;3.28;;;;;;;24.67;76.10;101107.00;4940716;28;20134;-69
2022/08/04 06:08:11;;;;;;;13.48;4.20;;;;;;;24.77;75.74;101095.84;4940961;29;20043;-67
2022/08/04 06:10:38;;;;;;;12.77;3.75;;;;;;;24.82;76.56;101098.03;4941118;29;20043;-66
2022/08/04 06:13:11;;;;;;;11.60;3.60;;;;;;;25.12;73.81;101093.50;4941077;28;20066;-68
2022/08/04 06:15:41;;;;;;;7.82;3.67;;;;;;;25.17;76.04;101099.25;4943019;28;20407;-68
2022/08/04 06:18:09;;;;;;;12.88;3.70;;;;;;;25.12;75.73;101088.88;4942782;28;20459;-68
2022/08/04 06:20:38;;;;;;;17.80;3.95;;;;;;;25.43;72.04;101087.88;4942514;29;20035;-68
2022/08/04 06:23:07;;;;;;;7.55;2.92;;;;;;;25.40;71.24;101094.53;4942061;28;20082;-68
2022/08/04 06:25:40;;;;;;;9.65;3.95;;;;;;;25.54;72.13;101092.84;4935493;29;20039;-68
2022/08/04 06:28:06;;;;;;;8.35;3.05;;;;;;;25.61;70.75;101096.53;4934875;29;20050;-68
2022/08/04 06:30:33;;;;;;;7.18;3.67;;;;;;;25.85;72.63;101100.00;4941073;28;20039;-69
2022/08/04 06:33:01;;;;;;;11.75;3.15;;;;;;;26.01;70.31;101097.91;4941103;28;20043;-68
2022/08/04 06:35:29;;;;;;;10.93;3.30;;;;;;;26.16;69.05;101097.88;4931554;28;20167;-68
2022/08/04 06:37:55;;;;;;;10.35;3.70;;;;;;;26.25;69.85;101088.50;4943367;28;20051;-67
2022/08/04 06:40:23;;;;;;;12.07;4.10;;;;;;;26.00;69.90;101098.94;4954745;28;20047;-68
2022/08/04 06:42:50;;;;;;;16.50;4.55;;;;;;;26.40;70.31;101095.78;4938001;29;20043;-69
2022/08/04 06:45:17;;;;;;;16.23;5.43;;;;;;;26.39;68.41;101094.94;4934806;28;20043;-69
2022/08/04 06:47:43;;;;;;;16.35;5.40;;;;;;;26.75;68.51;101092.16;4931998;29;20035;-68
2022/08/04 06:50:10;;;;;;;14.38;4.93;;;;;;;27.02;70.44;101097.88;4941775;28;20054;-69
2022/08/04 06:52:37;;;;;;;10.13;5.32;;;;;;;27.49;66.80;101085.34;4932149;28;20748;-69
2022/08/04 06:55:04;;;;;;;11.90;5.30;;;;;;;27.58;66.51;101085.00;4942350;28;20078;-68
2022/08/04 06:57:31;;;;;;;16.63;5.85;;;;;;;27.46;63.73;101091.22;4930996;28;20139;-70
2022/08/04 07:00:01;;;;;;;12.20;5.30;;;;;;;27.08;66.58;101089.72;4936957;28;20047;-69
2022/08/04 07:02:32;;;;;;;21.02;6.45;;;;;;;27.25;64.70;101089.41;4951032;28;20048;-68
2022/08/04 07:04:57;;;;;;;15.73;6.15;;;;;;;27.55;63.33;101079.91;4928406;29;20811;-69
2022/08/04 07:07:24;;;;;;;17.33;6.68;;;;;;;27.63;63.19;101087.97;4928055;29;20149;-68
2022/08/04 07:09:50;;;;;;;17.30;5.85;;;;;;;27.82;65.31;101085.56;4943150;29;21813;-69
2022/08/04 07:12:20;;;;;;;24.55;6.55;;;;;;;27.52;66.26;101096.75;4943243;28;20046;-68
2022/08/04 07:14:46;;;;;;;14.80;5.82;;;;;;;27.97;65.49;101085.41;4941753;28;20062;-68
2022/08/04 07:17:15;;;;;;;20.25;7.35;;;;;;;28.16;61.53;101087.34;4941519;28;20050;-68
2022/08/04 07:19:43;;;;;;;14.27;5.65;;;;;;;28.37;63.18;101092.72;4943175;28;20047;-68
2022/08/04 07:22:09;;;;;;;16.77;6.28;;;;;;;28.66;60.55;101090.63;4942456;28;20142;-69
2022/08/04 07:24:37;;;;;;;22.85;6.68;;;;;;;29.28;61.30;101097.59;4942671;28;20045;-68
2022/08/04 07:27:03;;;;;;;21.15;6.53;;;;;;;29.19;59.05;101087.91;4954405;28;20135;-68
2022/08/04 07:29:29;;;;;;;18.38;6.53;;;;;;;29.72;57.38;101097.91;4941908;28;20471;-69
2022/08/04 07:31:57;;;;;;;14.65;6.13;;;;;;;29.90;56.34;101095.31;4941071;29;20740;-68
2022/08/04 07:34:23;;;;;;;21.20;5.75;;;;;;;29.64;57.64;101097.13;4941180;29;20078;-69
2022/08/04 07:36:51;;;;;;;17.58;5.75;;;;;;;29.99;54.83;101104.16;4927446;28;20040;-69
2022/08/04 07:39:17;;;;;;;14.43;5.63;;;;;;;30.08;52.42;101098.19;4923831;29;20043;-69
2022/08/04 07:41:44;;;;;;;18.25;5.13;;;;;;;30.42;52.54;101104.38;4939507;28;20039;-69
2022/08/04 07:44:13;;;;;;;12.05;5.30;;;;;;;31.02;50.57;101106.69;4927085;28;20043;-69
2022/08/04 07:46:39;;;;;;;10.38;4.13;;;;;;;31.17;53.39;101109.94;4944648;28;20047;-68
2022/08/04 07:49:05;;;;;;;10.43;4.40;;;;;;;31.18;51.32;101109.72;4943249;29;20102;-69
2022/08/04 07:51:31;;;;;;;14.93;4.60;;;;;;;31.13;50.38;101114.25;4943284;28;20050;-69
2022/08/04 07:53:59;;;;;;;16.83;4.82;;;;;;;30.62;52.93;101113.31;4945916;28;20047;-69
2022/08/04 07:56:26;;;;;;;13.07;4.32;;;;;;;30.22;52.16;101118.25;4945438;28;20629;-69
2022/08/04 07:58:52;;;;;;;11.40;4.63;;;;;;;31.29;50.30;101110.91;4944925;28;20039;-68
2022/08/04 08:01:21;;;;;;;16.08;4.00;;;;;;;31.02;51.72;101113.03;4945899;29;20911;-69
2022/08/04 08:03:47;;;;;;;15.27;4.10;;;;;;;31.59;51.17;101100.00;4944025;29;20122;-68
2022/08/04 08:06:13;;;;;;;16.92;5.05;;;;;;;30.64;50.33;101104.88;4945349;28;20050;-68
2022/08/04 08:08:39;;;;;;;10.85;4.88;;;;;;;29.87;51.75;101109.50;4945436;28;20043;-69
2022/08/04 08:11:06;;;;;;;18.70;4.78;;;;;;;30.05;53.83;101100.53;4945069;28;21556;-69
2022/08/04 08:13:32;;;;;;;10.18;4.10;;;;;;;30.48;53.88;101106.25;4943700;28;20040;-69
2022/08/04 08:15:58;;;;;;;13.23;4.65;;;;;;;30.59;50.49;101105.53;4941204;29;20134;-69
2022/08/04 08:18:24;;;;;;;7.43;3.97;;;;;;;30.32;52.22;101104.84;4939886;28;20131;-70
2022/08/04 08:20:51;;;;;;;9.88;3.88;;;;;;;29.90;54.75;101100.81;4935623;28;20773;-69
2022/08/04 08:23:17;;;;;;;15.60;5.10;;;;;;;30.52;52.24;101104.72;4929921;28;20047;-68
2022/08/04 08:25:43;;;;;;;18.38;4.03;;;;;;;31.00;52.78;101103.31;4945051;28;20783;-69
2022/08/04 08:28:09;;;;;;;11.68;4.10;;;;;;;30.96;53.41;101108.44;4930821;29;20464;-69
2022/08/04 08:30:35;;;;;;;11.07;4.18;;;;;;;31.49;54.51;101094.16;4944608;28;20042;-69
2022/08/04 08:33:04;;;;;;;14.60;5.03;;;;;;;31.29;54.67;101101.81;4945526;28;20047;-69
2022/08/04 08:35:50;;;;;;;12.65;4.50;;;;;;;32.27;53.07;101103.59;4939960;29;20047;-69
2022/08/04 08:38:20;;;;;;;21.00;4.80;;;;;;;32.12;50.36;101098.50;4924761;28;20846;-69
2022/08/04 08:41:09;;;;;;;14.18;4.38;;;;;;;32.17;50.11;101095.88;4945753;29;20067;-69
2022/08/04 08:43:54;;;;;;;13.70;4.32;;;;;;;31.69;47.55;101094.78;4943577;29;20067;-68
2022/08/04 08:46:33;;;;;;;12.10;4.95;;;;;;;32.05;49.36;101084.78;4941641;29;20059;-69
2022/08/04 08:49:49;;;;;;;16.50;4.47;;;;;;;32.15;47.71;101085.06;4946632;28;20142;-69
2022/08/04 08:52:25;;;;;;;15.80;4.35;;;;;;;32.44;46.41;101085.34;4908692;29;20554;-69
2022/08/04 08:55:29;;;;;;;15.25;4.55;;;;;;;31.80;46.09;101092.31;4924870;29;20125;-69
2022/08/04 08:58:18;;;;;;;14.85;3.90;;;;;;;31.65;47.59;101100.97;4911814;29;20518;-69
2022/08/04 09:00:54;;;;;;;9.23;4.07;;;;;;;32.13;47.72;101098.28;4920064;29;20191;-69
2022/08/04 09:03:44;;;;;;;10.35;3.67;;;;;;;31.85;47.15;101100.78;4924221;29;20054;-68
2022/08/04 09:06:29;;;;;;;8.57;4.32;;;;;;;32.40;48.49;101103.44;4924645;29;20138;-68
2022/08/04 09:09:19;;;;;;;16.17;4.47;;;;;;;32.26;46.40;101101.91;4925283;29;20171;-69
2022/08/04 09:12:11;;;;;;;12.05;4.70;;;;;;;32.66;46.06;101102.19;4925262;29;20151;-69
2022/08/04 09:14:49;;;;;;;11.68;3.45;;;;;;;32.86;44.69;101104.63;4924123;29;20047;-68
2022/08/04 09:17:32;;;;;;;13.85;4.88;;;;;;;32.24;46.67;101104.91;4923852;29;20043;-68
2022/08/04 09:20:06;;;;;;;13.15;4.70;;;;;;;32.33;45.93;101110.94;4924120;29;20048;-69
2022/08/04 09:22:48;;;;;;;11.70;4.00;;;;;;;33.11;45.42;101110.78;4923208;29;20036;-69
2022/08/04 09:25:24;;;;;;;14.18;5.15;;;;;;;32.32;45.61;101112.00;4892191;29;20046;-68
2022/08/04 09:27:55;;;;;;;13.65;4.45;;;;;;;33.01;45.38;101109.72;4945953;29;20054;-69
2022/08/04 09:30:26;;;;;;;;;;;;;;;32.54;45.86;101115.13;4944549;28;20134;-68
2022/08/04 09:33:17;;;;;;;19.95;5.38;;;;;;;32.60;46.18;101117.78;4934389;29;19961;-68
2022/08/04 09:35:53;;;;;;;22.17;4.40;;;;;;;32.95;45.20;101112.34;4945166;29;20066;-68
2022/08/04 09:38:54;;;;;;;13.52;4.28;;;;;;;32.79;45.15;101112.19;4946565;29;20051;-69
2022/08/04 09:41:37;;;;;;;13.80;4.70;;;;;;;32.19;46.26;101110.31;4947953;29;20043;-67
2022/08/04 09:44:27;;;;;;;13.45;4.43;;;;;;;32.56;46.49;101116.56;4942413;29;20051;-69
2022/08/04 09:47:19;;;;;;;28.25;10.02;;;;;;;32.95;44.27;101120.63;4941363;28;20075;-69
2022/08/04 09:50:09;;;;;;;7.22;3.20;;;;;;;33.39;43.75;101109.22;4949443;28;20043;-69
2022/08/04 09:52:45;;;;;;;14.75;3.80;;;;;;;33.30;45.67;101119.81;4943762;29;20363;-69
2022/08/04 09:55:25;;;;;;;9.95;3.63;;;;;;;32.71;46.67;101127.16;4936799;28;20130;-68
2022/08/04 09:58:03;;;;;;;9.93;4.10;;;;;;;32.32;46.46;101128.56;4943855;29;20074;-69
2022/08/04 10:00:35;;;;;;;11.75;4.20;;;;;;;32.57;47.04;101125.69;4932242;28;20060;-69
2022/08/04 10:03:01;;;;;;;9.63;4.15;;;;;;;32.35;46.72;101128.13;4923574;28;20134;-68
2022/08/04 10:06:01;;;;;;;10.13;4.20;;;;;;;32.27;46.99;101134.78;4931350;29;20610;-69
2022/08/04 10:08:47;;;;;;;6.40;3.58;;;;;;;31.95;46.20;101129.50;4923909;28;20052;-69
2022/08/04 10:11:33;;;;;;;9.73;4.20;;;;;;;32.30;46.17;101134.34;4940728;28;20098;-68
2022/08/04 10:14:12;;;;;;;8.50;4.00;;;;;;;32.45;45.17;101136.72;4943092;28;20082;-68
2022/08/04 10:16:57;;;;;;;9.30;3.50;;;;;;;32.17;46.08;101140.88;4943171;29;20071;-68
2022/08/04 10:19:25;;;;;;;4.68;3.15;;;;;;;32.06;46.30;101140.81;4942886;28;20110;-68
2022/08/04 10:21:57;;;;;;;10.80;3.95;;;;;;;32.19;46.35;101140.66;4941962;28;20047;-68
2022/08/04 10:25:10;;;;;;;6.32;3.20;;;;;;;32.94;45.83;101132.78;4943719;29;20043;-68
2022/08/04 10:27:49;;;;;;;11.52;4.07;;;;;;;32.76;47.15;101138.34;4933049;29;20677;-68
2022/08/04 10:30:17;;;;;;;8.35;4.57;;;;;;;31.94;47.08;101144.38;4940690;29;20101;-69
2022/08/04 10:32:43;;;;;;;11.02;4.18;;;;;;;32.25;46.46;101148.00;4933349;29;20063;-68
2022/08/04 10:35:19;;;;;;;12.90;4.43;;;;;;;31.49;48.98;101156.75;4941804;29;20580;-69
2022/08/04 10:38:12;;;;;;;6.05;2.58;;;;;;;31.13;50.56;101159.16;4943483;29;20065;-68
2022/08/04 10:40:55;;;;;;;8.45;4.25;;;;;;;30.70;50.81;101159.06;4929771;29;20054;-68
2022/08/04 10:43:29;;;;;;;12.85;4.55;;;;;;;30.10;52.67;101161.25;4931365;29;20461;-68
2022/08/04 10:46:07;;;;;;;13.43;5.03;;;;;;;29.73;53.66;101166.47;4942682;29;20411;-71
2022/08/04 10:48:40;;;;;;;12.93;5.50;;;;;;;29.57;54.87;101161.41;4943047;29;20609;-67
2022/08/04 10:51:19;;;;;;;14.52;4.50;;;;;;;29.54;56.39;101167.34;4928379;28;20086;-68
2022/08/04 10:53:51;;;;;;;11.07;4.45;;;;;;;28.95;59.16;101187.41;4942148;29;20098;-68
2022/08/04 10:56:28;;;;;;;11.90;4.40;;;;;;;28.84;58.41;101194.34;4934354;29;20036;-68
2022/08/04 10:59:03;;;;;;;11.82;4.30;;;;;;;28.70;59.53;101201.69;4936860;28;20039;-69
2022/08/04 11:01:34;;;;;;;9.23;3.10;;;;;;;28.60;60.56;101215.81;4935246;29;20106;-68
2022/08/04 11:04:07;;;;;;;8.33;3.07;;;;;;;27.96;60.68;101221.63;4937166;29;20492;-69
2022/08/04 11:06:34;;;;;;;9.25;2.95;;;;;;;27.58;64.21;101240.34;4942815;29;20441;-68
2022/08/04 11:09:01;;;;;;;7.93;2.80;;;;;;;27.16;66.14;101250.31;4941004;29;20797;-68
2022/08/04 11:11:36;;;;;;;14.05;3.45;;;;;;;26.89;67.66;101287.47;4941978;29;20047;-68
2022/08/04 11:14:10;;;;;;;20.23;3.30;;;;;;;26.40;77.09;101325.53;4932752;28;20050;-71
2022/08/04 11:16:38;;;;;;;14.60;3.85;;;;;;;25.76;84.72;101348.75;4925835;29;20082;-70
2022/08/04 11:19:30;;;;;;;15.90;4.97;;;;;;;24.87;91.16;101344.72;4943113;28;20043;-69
2022/08/04 11:22:01;;;;;;;14.77;4.93;;;;;;;24.53;95.61;101342.31;4940817;28;20063;-69
2022/08/04 11:24:43;;;;;;;14.02;4.85;;;;;;;24.43;97.96;101328.03;4930551;28;20035;-69
2022/08/04 11:27:14;;;;;;;21.88;5.28;;;;;;;24.39;100.00;101321.22;4941042;28;20047;-68
2022/08/04 11:29:57;;;;;;;14.80;5.38;;;;;;;24.34;100.00;101309.97;4931709;28;20114;-68
2022/08/04 11:32:33;;;;;;;10.13;5.50;;;;;;;24.55;100.00;101310.28;4938169;28;20047;-69
2022/08/04 11:35:04;;;;;;;14.82;5.45;;;;;;;24.71;100.00;101303.88;4933688;28;20086;-69
2022/08/04 11:37:45;;;;;;;18.50;7.65;;;;;;;24.65;100.00;101313.63;4953582;28;20040;-70
2022/08/04 11:40:19;;;;;;;13.73;5.05;;;;;;;24.36;100.00;101297.06;4939349;28;20051;-69
2022/08/04 11:43:03;;;;;;;14.88;5.65;;;;;;;24.08;100.00;101281.09;4928820;28;20443;-70
2022/08/04 11:45:40;;;;;;;12.07;5.60;;;;;;;24.13;100.00;101269.66;4938231;28;20044;-69
2022/08/04 11:48:15;;;;;;;13.40;5.78;;;;;;;23.91;100.00;101255.78;4949630;28;20054;-70
2022/08/04 11:50:44;;;;;;;15.82;6.15;;;;;;;23.49;100.00;101248.69;4944705;28;20079;-69
2022/08/04 11:53:15;;;;;;;21.77;7.68;;;;;;;23.35;100.00;101240.34;4944596;29;20467;-69
2022/08/04 11:55:44;;;;;;;22.00;7.13;;;;;;;23.47;100.00;101236.25;4938607;28;20150;-71
2022/08/04 11:58:10;;;;;;;16.33;6.78;;;;;;;23.65;100.00;101228.75;4935370;28;20035;-70
2022/08/04 12:00:41;;;;;;;17.27;7.55;;;;;;;24.17;100.00;101241.03;4939894;28;20555;-69
2022/08/04 12:03:20;;;;;;;10.60;5.43;;;;;;;25.07;100.00;101260.53;4934517;29;20031;-69
2022/08/04 12:06:08;;;;;;;13.88;5.53;;;;;;;25.37;100.00;101268.84;4938350;28;20161;-70